Time;durP1;ratioP1;P1;durP2;ratioP2;P2;SDS_P1;SDS_P2;PMS_P1;PMS_P2;Temp;Humidity;BMP_temperature;BMP_pressure;BME280_temperature;BME280_humidity;BME280_pressure;Samples;Min_cycle;Max_cycle;Signal;HPM_P1;HPM_P2
2022/09/21 00:00:10;;;;;;;;;5.75;5.25;;;;;;;;5044615;28;45553;-77
2022/09/21 00:02:35;;;;;;;;;10.00;6.00;;;;;;;;5069251;28;45358;-77
2022/09/21 00:05:00;;;;;;;;;9.00;6.75;;;;;;;;5045596;28;45545;-77
2022/09/21 00:07:26;;;;;;;;;5.75;5.75;;;;;;;;5059402;28;46024;-78
2022/09/21 00:09:51;;;;;;;;;5.75;5.75;;;;;;;;5053747;28;45426;-78
2022/09/21 00:12:16;;;;;;;;;7.50;4.50;;;;;;;;5052205;28;45311;-78
2022/09/21 00:14:42;;;;;;;;;6.25;6.25;;;;;;;;5053039;28;45422;-77
2022/09/21 00:17:08;;;;;;;;;6.00;6.00;;;;;;;;5051232;28;45995;-78
2022/09/21 00:19:33;;;;;;;;;3.00;3.00;;;;;;;;5047188;28;45174;-78
2022/09/21 00:21:58;;;;;;;;;6.00;6.00;;;;;;;;5085698;27;45259;-78
2022/09/21 00:24:24;;;;;;;;;7.00;5.50;;;;;;;;5052069;28;45213;-78
2022/09/21 00:26:49;;;;;;;;;7.00;5.50;;;;;;;;5052439;28;46376;-78
2022/09/21 00:29:14;;;;;;;;;7.00;6.00;;;;;;;;5054032;28;45321;-78
2022/09/21 00:31:39;;;;;;;;;5.00;5.00;;;;;;;;5052307;28;45221;-78
2022/09/21 00:34:06;;;;;;;;;3.25;3.00;;;;;;;;5051908;28;45552;-77
2022/09/21 00:36:32;;;;;;;;;6.25;6.00;;;;;;;;5052607;28;45997;-77
2022/09/21 00:38:58;;;;;;;;;5.50;4.75;;;;;;;;5056638;28;45455;-77
2022/09/21 00:41:24;;;;;;;;;8.00;5.75;;;;;;;;5052311;28;45410;-77
2022/09/21 00:44:08;;;;;;;;;7.50;5.75;;;;;;;;5061444;28;45694;-77
2022/09/21 00:46:35;;;;;;;;;8.00;8.00;;;;;;;;5053259;28;45474;-78
2022/09/21 00:49:00;;;;;;;;;13.50;13.25;;;;;;;;5055535;28;45361;-77
2022/09/21 00:51:25;;;;;;;;;17.00;15.00;;;;;;;;5047342;28;45512;-77
2022/09/21 00:53:54;;;;;;;;;19.25;15.25;;;;;;;;5054414;28;45439;-77
2022/09/21 00:56:19;;;;;;;;;21.25;18.25;;;;;;;;5057450;28;46266;-76
2022/09/21 00:58:48;;;;;;;;;19.75;15.50;;;;;;;;5055379;28;45400;-77
2022/09/21 01:01:17;;;;;;;;;19.25;19.25;;;;;;;;5054567;28;45358;-77
2022/09/21 01:03:44;;;;;;;;;17.00;16.75;;;;;;;;5054941;28;45482;-77
2022/09/21 01:06:10;;;;;;;;;18.75;18.75;;;;;;;;5047620;28;45373;-77
2022/09/21 01:08:36;;;;;;;;;18.00;18.00;;;;;;;;5047396;28;45252;-77
2022/09/21 01:11:21;;;;;;;;;22.00;21.00;;;;;;;;5050869;28;45177;-77
2022/09/21 01:14:04;;;;;;;;;20.00;18.75;;;;;;;;5051095;28;45236;-77
2022/09/21 01:16:48;;;;;;;;;18.00;17.00;;;;;;;;5051541;28;45480;-78
2022/09/21 01:19:41;;;;;;;;;16.50;15.50;;;;;;;;5054200;28;44613;-77
2022/09/21 01:22:17;;;;;;;;;17.25;15.75;;;;;;;;5050557;28;45341;-77
2022/09/21 01:24:50;;;;;;;;;17.25;14.25;;;;;;;;5048669;28;45182;-77
2022/09/21 01:27:31;;;;;;;;;20.50;18.50;;;;;;;;5056609;28;46075;-77
2022/09/21 01:29:58;;;;;;;;;16.75;16.50;;;;;;;;5061895;28;45375;-78
2022/09/21 01:32:30;;;;;;;;;17.75;16.75;;;;;;;;5053885;28;45296;-77
2022/09/21 01:35:06;;;;;;;;;18.00;18.00;;;;;;;;5059007;28;45426;-77
2022/09/21 01:37:35;;;;;;;;;17.00;16.25;;;;;;;;5054525;28;45511;-77
2022/09/21 01:40:03;;;;;;;;;19.50;17.00;;;;;;;;5048732;28;45359;-77
2022/09/21 01:42:30;;;;;;;;;17.25;16.00;;;;;;;;5058273;28;45501;-77
2022/09/21 01:44:57;;;;;;;;;22.75;18.00;;;;;;;;5051943;28;45462;-77
2022/09/21 01:47:24;;;;;;;;;17.25;16.75;;;;;;;;5055405;28;45927;-77
2022/09/21 01:49:52;;;;;;;;;21.00;19.00;;;;;;;;5053606;28;45499;-77
2022/09/21 01:52:17;;;;;;;;;22.25;20.75;;;;;;;;5060882;28;45381;-77
2022/09/21 01:54:47;;;;;;;;;22.75;21.50;;;;;;;;5057302;28;45596;-77
2022/09/21 01:57:18;;;;;;;;;20.00;18.75;;;;;;;;5058499;28;45419;-77
2022/09/21 01:59:51;;;;;;;;;18.50;17.50;;;;;;;;5057689;28;45438;-77
2022/09/21 02:02:20;;;;;;;;;20.25;16.00;;;;;;;;5059602;28;45460;-77
2022/09/21 02:04:45;;;;;;;;;22.00;19.25;;;;;;;;5062699;28;45308;-77
2022/09/21 02:07:10;;;;;;;;;21.50;21.50;;;;;;;;5061476;28;45202;-77
2022/09/21 02:09:36;;;;;;;;;26.25;22.25;;;;;;;;5078711;27;45556;-77
2022/09/21 02:12:01;;;;;;;;;22.75;20.00;;;;;;;;5071244;28;45299;-76
2022/09/21 02:14:27;;;;;;;;;22.50;19.00;;;;;;;;5049382;28;45306;-76
2022/09/21 02:17:13;;;;;;;;;20.00;20.00;;;;;;;;5053774;28;50017;-76
2022/09/21 02:19:53;;;;;;;;;21.50;19.75;;;;;;;;5059444;28;45620;-76
2022/09/21 02:22:30;;;;;;;;;16.25;15.50;;;;;;;;5054734;28;45379;-76
2022/09/21 02:25:03;;;;;;;;;21.50;18.75;;;;;;;;5049294;28;45561;-76
2022/09/21 02:27:37;;;;;;;;;18.75;15.00;;;;;;;;5045893;28;45331;-77
2022/09/21 02:30:13;;;;;;;;;16.50;16.50;;;;;;;;5049997;28;45615;-77
2022/09/21 02:32:56;;;;;;;;;18.25;17.00;;;;;;;;5051772;28;45377;-77
2022/09/21 02:35:21;;;;;;;;;20.50;17.25;;;;;;;;5055527;28;45487;-77
2022/09/21 02:37:55;;;;;;;;;18.50;17.25;;;;;;;;5056585;28;46249;-77
2022/09/21 02:40:23;;;;;;;;;16.50;16.00;;;;;;;;5054950;28;45397;-78
2022/09/21 02:42:51;;;;;;;;;16.00;14.50;;;;;;;;5058404;28;45280;-77
2022/09/21 02:45:40;;;;;;;;;17.00;13.00;;;;;;;;5054445;28;45386;-77
2022/09/21 02:48:12;;;;;;;;;15.00;15.00;;;;;;;;5040172;28;46279;-77
2022/09/21 02:50:43;;;;;;;;;14.25;14.25;;;;;;;;5056649;28;45442;-78
2022/09/21 02:53:09;;;;;;;;;19.00;15.75;;;;;;;;5049592;28;45224;-78
2022/09/21 02:55:34;;;;;;;;;18.50;18.00;;;;;;;;5047398;28;45128;-77
2022/09/21 02:58:04;;;;;;;;;14.75;14.50;;;;;;;;5045978;28;45713;-77
2022/09/21 03:00:30;;;;;;;;;17.50;17.50;;;;;;;;5049462;28;45256;-78
2022/09/21 03:02:55;;;;;;;;;13.75;13.75;;;;;;;;5048321;28;45335;-77
2022/09/21 03:05:20;;;;;;;;;17.00;15.25;;;;;;;;5051235;28;45537;-78
2022/09/21 03:07:45;;;;;;;;;16.75;14.25;;;;;;;;5049131;28;46295;-77
2022/09/21 03:10:11;;;;;;;;;14.00;12.25;;;;;;;;5085827;27;45389;-78
2022/09/21 03:12:36;;;;;;;;;15.75;15.00;;;;;;;;5062958;28;45448;-77
2022/09/21 03:15:02;;;;;;;;;14.50;12.50;;;;;;;;5056918;28;45422;-77
2022/09/21 03:17:27;;;;;;;;;14.25;14.25;;;;;;;;5056271;28;45485;-77
2022/09/21 03:19:53;;;;;;;;;16.50;16.50;;;;;;;;5057570;28;45481;-76
2022/09/21 03:22:20;;;;;;;;;16.25;16.00;;;;;;;;5050724;28;45374;-77
2022/09/21 03:24:45;;;;;;;;;16.75;14.50;;;;;;;;5045610;28;45513;-77
2022/09/21 03:27:11;;;;;;;;;17.25;16.25;;;;;;;;5054721;28;45920;-77
2022/09/21 03:29:36;;;;;;;;;17.25;16.00;;;;;;;;5059175;28;45248;-77
2022/09/21 03:32:01;;;;;;;;;18.00;15.00;;;;;;;;5053595;28;45500;-77
2022/09/21 03:34:27;;;;;;;;;13.50;13.50;;;;;;;;5058948;28;45357;-76
2022/09/21 03:36:52;;;;;;;;;14.25;14.00;;;;;;;;5054362;28;46427;-77
2022/09/21 03:39:17;;;;;;;;;19.25;16.25;;;;;;;;5071102;28;45397;-76
2022/09/21 03:41:42;;;;;;;;;16.50;15.75;;;;;;;;5053606;28;45699;-77
2022/09/21 03:44:08;;;;;;;;;17.00;16.25;;;;;;;;5055579;28;45319;-77
2022/09/21 03:46:34;;;;;;;;;13.25;12.75;;;;;;;;5068602;28;47854;-77
2022/09/21 03:48:59;;;;;;;;;15.50;15.00;;;;;;;;5056839;28;45280;-77
2022/09/21 03:51:25;;;;;;;;;17.25;16.25;;;;;;;;5057098;28;45307;-77
2022/09/21 03:53:50;;;;;;;;;23.00;16.50;;;;;;;;5045611;28;45419;-76
2022/09/21 03:56:15;;;;;;;;;18.00;16.25;;;;;;;;5048807;28;46367;-76
2022/09/21 03:58:40;;;;;;;;;13.00;13.00;;;;;;;;5046439;28;45431;-75
2022/09/21 04:01:05;;;;;;;;;19.25;15.25;;;;;;;;5050673;28;45538;-74
2022/09/21 04:03:31;;;;;;;;;16.50;16.50;;;;;;;;5050460;28;45432;-74
2022/09/21 04:05:56;;;;;;;;;16.00;16.00;;;;;;;;5066759;28;47186;-74
2022/09/21 04:08:21;;;;;;;;;15.75;13.25;;;;;;;;5046666;28;45265;-74
2022/09/21 04:10:47;;;;;;;;;20.50;15.00;;;;;;;;5054238;28;45534;-74
2022/09/21 04:13:12;;;;;;;;;14.75;14.00;;;;;;;;5054138;28;46097;-74
2022/09/21 04:15:37;;;;;;;;;17.00;13.75;;;;;;;;5053762;28;45513;-74
2022/09/21 04:18:04;;;;;;;;;17.25;16.00;;;;;;;;5049812;28;45244;-74
2022/09/21 04:20:29;;;;;;;;;15.25;14.25;;;;;;;;5053204;28;45457;-74
2022/09/21 04:22:55;;;;;;;;;17.00;15.50;;;;;;;;5055035;28;45267;-75
2022/09/21 04:25:20;;;;;;;;;18.25;15.50;;;;;;;;5051352;28;46240;-74
2022/09/21 04:27:46;;;;;;;;;16.00;12.50;;;;;;;;5087561;27;45203;-74
2022/09/21 04:30:12;;;;;;;;;15.50;14.00;;;;;;;;5055546;28;45274;-75
2022/09/21 04:32:37;;;;;;;;;16.25;14.25;;;;;;;;5050849;28;45368;-75
2022/09/21 04:35:02;;;;;;;;;18.00;15.00;;;;;;;;5049645;28;46025;-75
2022/09/21 04:37:28;;;;;;;;;19.75;17.25;;;;;;;;5052907;28;45309;-77
2022/09/21 04:39:53;;;;;;;;;22.00;17.50;;;;;;;;5048835;28;45317;-75
2022/09/21 04:42:18;;;;;;;;;22.25;18.75;;;;;;;;5050459;28;45549;-76
2022/09/21 04:44:43;;;;;;;;;15.75;14.50;;;;;;;;5054775;28;46117;-76
2022/09/21 04:47:09;;;;;;;;;21.50;18.00;;;;;;;;5093333;27;45452;-75
2022/09/21 04:49:34;;;;;;;;;18.25;15.50;;;;;;;;5060890;28;45419;-76
2022/09/21 04:51:59;;;;;;;;;18.25;16.50;;;;;;;;5057481;28;45837;-75
2022/09/21 04:54:24;;;;;;;;;15.50;14.25;;;;;;;;5061252;28;46103;-75
2022/09/21 04:56:50;;;;;;;;;19.50;16.25;;;;;;;;5055264;28;45378;-77
2022/09/21 04:59:15;;;;;;;;;15.00;14.25;;;;;;;;5056790;28;45193;-77
2022/09/21 05:01:40;;;;;;;;;18.00;17.50;;;;;;;;5054962;28;45545;-75
2022/09/21 05:04:05;;;;;;;;;16.00;16.00;;;;;;;;5062910;28;45343;-74
2022/09/21 05:06:31;;;;;;;;;16.25;16.25;;;;;;;;5052117;27;45342;-74
2022/09/21 05:11:41;;;;;;;;;16.00;15.50;;;;;;;;5052180;28;45327;-75
2022/09/21 05:14:06;;;;;;;;;15.00;15.00;;;;;;;;5053724;28;46060;-76
2022/09/21 05:16:32;;;;;;;;;15.00;13.75;;;;;;;;5048708;28;45196;-76
2022/09/21 05:18:57;;;;;;;;;20.25;17.00;;;;;;;;5055062;28;45260;-76
2022/09/21 05:21:22;;;;;;;;;18.25;16.25;;;;;;;;5068327;28;46689;-76
2022/09/21 05:23:47;;;;;;;;;19.00;14.00;;;;;;;;5061790;28;45429;-74
2022/09/21 05:26:13;;;;;;;;;15.25;14.25;;;;;;;;5060686;28;45269;-74
2022/09/21 05:28:38;;;;;;;;;19.75;17.00;;;;;;;;5061546;28;45572;-75
2022/09/21 05:31:11;;;;;;;;;14.50;14.50;;;;;;;;5058923;28;45455;-74
2022/09/21 05:33:39;;;;;;;;;21.75;16.00;;;;;;;;5061563;28;46532;-74
2022/09/21 05:36:04;;;;;;;;;19.50;15.00;;;;;;;;5059763;28;45303;-75
2022/09/21 05:38:29;;;;;;;;;13.50;13.00;;;;;;;;5050972;28;45331;-77
2022/09/21 05:40:55;;;;;;;;;19.00;13.75;;;;;;;;5055677;28;45289;-75
2022/09/21 05:43:20;;;;;;;;;13.25;13.25;;;;;;;;5063021;28;45201;-76
2022/09/21 05:45:46;;;;;;;;;20.25;17.50;;;;;;;;5060513;28;45303;-76
2022/09/21 05:48:12;;;;;;;;;15.50;13.25;;;;;;;;5062014;28;45218;-77
2022/09/21 05:50:46;;;;;;;;;20.00;17.00;;;;;;;;5059892;28;45288;-77
2022/09/21 05:53:32;;;;;;;;;15.75;13.25;;;;;;;;5060094;28;47714;-77
2022/09/21 05:56:02;;;;;;;;;16.75;16.00;;;;;;;;5057874;28;45433;-74
2022/09/21 05:58:39;;;;;;;;;13.50;10.50;;;;;;;;5051362;28;45750;-74
2022/09/21 06:01:13;;;;;;;;;17.50;15.25;;;;;;;;5058837;28;45458;-74
2022/09/21 06:03:39;;;;;;;;;12.50;12.50;;;;;;;;5060662;28;45496;-74
2022/09/21 06:06:06;;;;;;;;;20.25;16.00;;;;;;;;5058655;28;46254;-74
2022/09/21 06:08:31;;;;;;;;;21.75;15.25;;;;;;;;5059057;28;45383;-74
2022/09/21 06:10:57;;;;;;;;;21.00;16.25;;;;;;;;5057254;28;45474;-73
2022/09/21 06:13:22;;;;;;;;;12.50;12.00;;;;;;;;5059154;28;45398;-73
2022/09/21 06:15:47;;;;;;;;;17.75;15.00;;;;;;;;5059101;28;45589;-73
2022/09/21 06:18:12;;;;;;;;;19.75;15.50;;;;;;;;5058686;28;45509;-72
2022/09/21 06:20:38;;;;;;;;;15.00;14.00;;;;;;;;5057861;28;45545;-73
2022/09/21 06:23:07;;;;;;;;;17.25;14.25;;;;;;;;5059778;28;46619;-73
2022/09/21 06:25:33;;;;;;;;;17.25;15.75;;;;;;;;5058324;28;45351;-74
2022/09/21 06:28:06;;;;;;;;;15.75;14.50;;;;;;;;5058169;28;45632;-72
2022/09/21 06:30:33;;;;;;;;;15.50;14.50;;;;;;;;5058037;28;45378;-72
2022/09/21 06:32:59;;;;;;;;;18.00;15.25;;;;;;;;5058113;28;45529;-73
2022/09/21 06:35:25;;;;;;;;;14.00;14.00;;;;;;;;5058052;28;45426;-72
2022/09/21 06:37:50;;;;;;;;;18.25;14.00;;;;;;;;5058188;28;45802;-74
2022/09/21 06:40:15;;;;;;;;;16.25;14.75;;;;;;;;5057734;28;45468;-70
2022/09/21 06:42:40;;;;;;;;;14.50;14.50;;;;;;;;5051542;28;47389;-71
2022/09/21 06:45:06;;;;;;;;;15.25;15.00;;;;;;;;5055112;28;45438;-74
2022/09/21 06:47:31;;;;;;;;;18.75;16.50;;;;;;;;5059462;28;45466;-72
2022/09/21 06:49:56;;;;;;;;;21.75;16.00;;;;;;;;5056385;28;45168;-71
2022/09/21 06:52:21;;;;;;;;;19.75;17.00;;;;;;;;5059625;28;46019;-71
2022/09/21 06:54:47;;;;;;;;;20.00;18.25;;;;;;;;5056440;28;45647;-74
2022/09/21 06:57:12;;;;;;;;;22.00;18.00;;;;;;;;5059717;28;45394;-74
2022/09/21 06:59:37;;;;;;;;;17.75;14.75;;;;;;;;5059050;28;45476;-74
2022/09/21 07:02:03;;;;;;;;;19.50;17.25;;;;;;;;5058456;28;46122;-74
2022/09/21 07:04:28;;;;;;;;;18.50;17.25;;;;;;;;5060002;28;45382;-74
2022/09/21 07:06:53;;;;;;;;;21.00;17.25;;;;;;;;5056774;28;45476;-76
2022/09/21 07:09:18;;;;;;;;;15.50;15.50;;;;;;;;5059881;28;45327;-75
2022/09/21 07:11:44;;;;;;;;;14.75;13.25;;;;;;;;5057484;28;45422;-75
2022/09/21 07:14:09;;;;;;;;;24.50;18.75;;;;;;;;5059690;28;45371;-73
2022/09/21 07:16:34;;;;;;;;;18.50;17.50;;;;;;;;5058124;28;45276;-72
2022/09/21 07:19:00;;;;;;;;;23.00;16.75;;;;;;;;5059664;28;45542;-73
2022/09/21 07:21:25;;;;;;;;;17.50;16.00;;;;;;;;5057770;28;45980;-75
2022/09/21 07:23:51;;;;;;;;;20.25;18.50;;;;;;;;5056985;28;45401;-74
2022/09/21 07:26:16;;;;;;;;;16.25;15.25;;;;;;;;5054962;28;45322;-74
2022/09/21 07:28:41;;;;;;;;;21.50;17.75;;;;;;;;5059005;28;45293;-74
2022/09/21 07:31:08;;;;;;;;;19.75;17.75;;;;;;;;5056694;28;45641;-74
2022/09/21 07:33:33;;;;;;;;;18.75;16.75;;;;;;;;5059279;28;45318;-75
2022/09/21 07:35:59;;;;;;;;;20.00;17.00;;;;;;;;5056493;28;45370;-74
2022/09/21 07:38:25;;;;;;;;;17.00;16.00;;;;;;;;5059248;28;45845;-74
2022/09/21 07:40:50;;;;;;;;;16.25;14.75;;;;;;;;5053558;28;45495;-75
2022/09/21 07:43:16;;;;;;;;;16.00;15.25;;;;;;;;5063270;28;45410;-72
2022/09/21 07:45:41;;;;;;;;;17.50;13.25;;;;;;;;5049933;28;45399;-72
2022/09/21 07:48:10;;;;;;;;;15.75;14.75;;;;;;;;5058125;28;45550;-72
2022/09/21 07:50:35;;;;;;;;;13.75;13.00;;;;;;;;5056486;28;45304;-72
2022/09/21 07:53:01;;;;;;;;;20.25;16.75;;;;;;;;5058891;28;45320;-72
2022/09/21 07:55:27;;;;;;;;;19.25;17.00;;;;;;;;5053966;28;45375;-72
2022/09/21 08:00:37;;;;;;;;;18.25;14.75;;;;;;;;5052577;28;45356;-74
2022/09/21 08:03:02;;;;;;;;;15.75;13.75;;;;;;;;5050312;28;45259;-72
2022/09/21 08:05:27;;;;;;;;;20.25;16.00;;;;;;;;5056029;28;45291;-72
2022/09/21 08:07:56;;;;;;;;;14.75;13.25;;;;;;;;5051268;28;46280;-73
2022/09/21 08:10:22;;;;;;;;;17.00;14.50;;;;;;;;5053507;28;45568;-73
2022/09/21 08:12:47;;;;;;;;;21.50;16.50;;;;;;;;5055925;28;45182;-74
2022/09/21 08:15:13;;;;;;;;;16.50;13.00;;;;;;;;5054760;28;45565;-74
2022/09/21 08:17:38;;;;;;;;;16.00;15.25;;;;;;;;5050901;28;45386;-73
2022/09/21 08:20:04;;;;;;;;;13.25;12.75;;;;;;;;5045219;28;46175;-75
2022/09/21 08:22:29;;;;;;;;;19.75;16.00;;;;;;;;5057455;28;45460;-74
2022/09/21 08:24:54;;;;;;;;;12.50;11.75;;;;;;;;5052296;28;45455;-74
2022/09/21 08:27:20;;;;;;;;;15.75;13.00;;;;;;;;5048933;28;45418;-74
2022/09/21 08:29:45;;;;;;;;;18.00;14.75;;;;;;;;5050270;28;45991;-74
2022/09/21 08:32:10;;;;;;;;;14.50;13.25;;;;;;;;5052623;28;45386;-72
2022/09/21 08:34:36;;;;;;;;;17.75;14.25;;;;;;;;5052939;28;45381;-72
2022/09/21 08:37:01;;;;;;;;;22.25;15.00;;;;;;;;5052707;28;45449;-74
2022/09/21 08:39:26;;;;;;;;;16.25;15.00;;;;;;;;5057711;28;45385;-73
2022/09/21 08:42:07;;;;;;;;;15.00;15.00;;;;;;;;5054359;28;45450;-73
2022/09/21 08:44:38;;;;;;;;;9.75;9.00;;;;;;;;5070764;28;45438;-74
2022/09/21 08:47:13;;;;;;;;;12.25;11.75;;;;;;;;5057540;28;45372;-73
2022/09/21 08:49:40;;;;;;;;;15.00;14.00;;;;;;;;5055205;28;46665;-73
2022/09/21 08:52:08;;;;;;;;;10.67;8.00;;;;;;;;5057053;28;45581;-74
2022/09/21 08:54:33;;;;;;;;;12.00;11.00;;;;;;;;5058383;28;45497;-74
2022/09/21 08:56:58;;;;;;;;;15.00;14.00;;;;;;;;5055703;28;45395;-74
2022/09/21 08:59:23;;;;;;;;;13.00;13.00;;;;;;;;5058268;28;45334;-73
2022/09/21 09:01:59;;;;;;;;;12.00;11.00;;;;;;;;5047929;28;45484;-74
2022/09/21 09:04:43;;;;;;;;;13.67;10.67;;;;;;;;5089157;27;45386;-73
2022/09/21 09:07:12;;;;;;;;;12.00;12.00;;;;;;;;5049442;28;45562;-73
2022/09/21 09:09:53;;;;;;;;;13.67;13.67;;;;;;;;5057229;28;46051;-71
2022/09/21 09:12:21;;;;;;;;;27.75;26.25;;;;;;;;5071986;28;45512;-71
2022/09/21 09:14:56;;;;;;;;;12.00;12.00;;;;;;;;5054037;28;45350;-73
2022/09/21 09:17:30;;;;;;;;;15.00;11.67;;;;;;;;5054958;28;45309;-74
2022/09/21 09:19:59;;;;;;;;;13.00;10.00;;;;;;;;5055908;28;45578;-74
2022/09/21 09:22:28;;;;;;;;;13.00;12.00;;;;;;;;5051660;28;45248;-75
2022/09/21 09:24:55;;;;;;;;;16.33;14.67;;;;;;;;5045656;28;45285;-74
2022/09/21 09:27:20;;;;;;;;;11.00;9.33;;;;;;;;5052446;28;45564;-74
2022/09/21 09:29:52;;;;;;;;;17.00;16.33;;;;;;;;5049679;28;46127;-74
2022/09/21 09:32:18;;;;;;;;;12.00;10.67;;;;;;;;5058419;28;45236;-74
2022/09/21 09:34:52;;;;;;;;;12.33;10.67;;;;;;;;5059058;28;45420;-74
2022/09/21 09:37:19;;;;;;;;;17.67;13.67;;;;;;;;5059548;28;45349;-74
2022/09/21 09:39:49;;;;;;;;;17.33;15.33;;;;;;;;5057659;28;45712;-71
2022/09/21 09:42:34;;;;;;;;;16.33;12.33;;;;;;;;5054008;28;45460;-73
2022/09/21 09:45:20;;;;;;;;;11.00;10.00;;;;;;;;5058854;28;45561;-76
2022/09/21 09:48:01;;;;;;;;;9.67;7.33;;;;;;;;5060594;28;45426;-76
2022/09/21 09:50:28;;;;;;;;;8.00;7.33;;;;;;;;5058303;28;45453;-75
2022/09/21 09:52:58;;;;;;;;;13.00;12.00;;;;;;;;5064633;28;45420;-74
2022/09/21 09:55:29;;;;;;;;;8.33;7.00;;;;;;;;5055578;28;45324;-75
2022/09/21 09:57:54;;;;;;;;;7.00;7.00;;;;;;;;5061172;28;45426;-75
2022/09/21 10:00:20;;;;;;;;;10.67;8.00;;;;;;;;5058268;28;47401;-74
2022/09/21 10:02:50;;;;;;;;;9.67;9.67;;;;;;;;5052586;28;45303;-75
2022/09/21 10:05:20;;;;;;;;;9.67;8.67;;;;;;;;5057885;28;45493;-75
2022/09/21 10:07:45;;;;;;;;;7.67;7.67;;;;;;;;5051556;28;45490;-75
2022/09/21 10:10:13;;;;;;;;;6.33;6.33;;;;;;;;5047393;28;46300;-75
2022/09/21 10:12:38;;;;;;;;;5.33;5.33;;;;;;;;5052072;28;45391;-75
2022/09/21 10:15:09;;;;;;;;;4.67;4.67;;;;;;;;5048589;28;45343;-76
2022/09/21 10:17:34;;;;;;;;;8.33;7.00;;;;;;;;5056578;28;45292;-75
2022/09/21 10:20:00;;;;;;;;;6.67;6.67;;;;;;;;5054055;28;46058;-76
2022/09/21 10:22:27;;;;;;;;;7.00;7.00;;;;;;;;5060203;28;45172;-75
2022/09/21 10:24:53;;;;;;;;;7.00;7.00;;;;;;;;5057378;28;45237;-75
2022/09/21 10:27:23;;;;;;;;;9.00;7.33;;;;;;;;5056111;28;45280;-75
2022/09/21 10:29:48;;;;;;;;;6.00;6.00;;;;;;;;5054655;28;45355;-75
2022/09/21 10:32:15;;;;;;;;;6.33;4.00;;;;;;;;5055407;28;45344;-74
2022/09/21 10:34:44;;;;;;;;;6.00;4.00;;;;;;;;5057902;28;45304;-75
2022/09/21 10:37:24;;;;;;;;;4.00;4.00;;;;;;;;5057388;28;45497;-81
2022/09/21 10:39:49;;;;;;;;;5.00;5.00;;;;;;;;5054445;28;45492;-74
2022/09/21 10:42:17;;;;;;;;;4.00;4.00;;;;;;;;5065432;28;45863;-75
2022/09/21 10:44:46;;;;;;;;;4.00;4.00;;;;;;;;5057896;28;45764;-75
2022/09/21 10:47:20;;;;;;;;;3.25;3.25;;;;;;;;5054897;28;45425;-75
2022/09/21 10:49:49;;;;;;;;;3.75;3.50;;;;;;;;5059305;28;45423;-75
2022/09/21 10:52:14;;;;;;;;;4.75;4.00;;;;;;;;5051758;28;45399;-74
2022/09/21 10:54:40;;;;;;;;;4.00;4.00;;;;;;;;5047418;28;45245;-74
2022/09/21 10:57:07;;;;;;;;;7.00;5.50;;;;;;;;5058965;28;45302;-74
2022/09/21 10:59:36;;;;;;;;;4.00;4.00;;;;;;;;5056669;28;45372;-74
2022/09/21 11:02:07;;;;;;;;;3.00;3.00;;;;;;;;5049996;28;45422;-75
2022/09/21 11:04:47;;;;;;;;;4.25;3.00;;;;;;;;5056296;28;45363;-74
2022/09/21 11:07:12;;;;;;;;;3.00;3.00;;;;;;;;5052186;28;45360;-74
2022/09/21 11:09:56;;;;;;;;;3.25;2.00;;;;;;;;5049660;28;45928;-74
2022/09/21 11:12:31;;;;;;;;;5.50;4.00;;;;;;;;5053283;28;45446;-74
2022/09/21 11:15:08;;;;;;;;;5.25;4.00;;;;;;;;5050488;28;45338;-74
2022/09/21 11:17:45;;;;;;;;;4.00;4.00;;;;;;;;5052758;28;45354;-74
2022/09/21 11:20:16;;;;;;;;;4.50;4.50;;;;;;;;5055109;28;45331;-74
2022/09/21 11:22:44;;;;;;;;;5.00;5.00;;;;;;;;5055725;28;45422;-75
2022/09/21 11:25:22;;;;;;;;;3.00;2.67;;;;;;;;5056363;28;45260;-75
2022/09/21 11:27:51;;;;;;;;;4.00;2.33;;;;;;;;5051748;28;45395;-75
2022/09/21 11:30:17;;;;;;;;;4.67;4.67;;;;;;;;5055856;28;46358;-74
2022/09/21 11:32:45;;;;;;;;;4.00;3.00;;;;;;;;5052786;28;45502;-74
2022/09/21 11:35:11;;;;;;;;;4.00;4.00;;;;;;;;5053828;28;45229;-74
2022/09/21 11:37:48;;;;;;;;;3.67;3.67;;;;;;;;5055177;28;45266;-75
2022/09/21 11:40:32;;;;;;;;;4.33;2.67;;;;;;;;5053901;28;46167;-75
2022/09/21 11:43:07;;;;;;;;;2.75;2.75;;;;;;;;5067333;28;45361;-76
2022/09/21 11:45:38;;;;;;;;;3.00;2.75;;;;;;;;5051328;28;45473;-75
2022/09/21 11:48:03;;;;;;;;;3.00;2.50;;;;;;;;5056060;28;45319;-75
2022/09/21 11:50:37;;;;;;;;;3.75;2.75;;;;;;;;5054491;28;46275;-75
2022/09/21 11:53:21;;;;;;;;;2.25;2.25;;;;;;;;5048861;28;45292;-75
2022/09/21 11:55:55;;;;;;;;;3.50;2.00;;;;;;;;5044975;28;45337;-75
2022/09/21 11:58:23;;;;;;;;;1.75;1.75;;;;;;;;5048865;28;45387;-75
2022/09/21 12:01:21;;;;;;;;;2.00;2.00;;;;;;;;5048329;28;45337;-75
2022/09/21 12:03:52;;;;;;;;;3.50;2.00;;;;;;;;5027715;28;46557;-75
2022/09/21 12:06:25;;;;;;;;;3.00;1.75;;;;;;;;5057258;28;45427;-76
2022/09/21 12:08:53;;;;;;;;;2.00;2.00;;;;;;;;5055626;28;45348;-74
2022/09/21 12:11:28;;;;;;;;;3.00;1.25;;;;;;;;5062303;28;47912;-75
2022/09/21 12:13:59;;;;;;;;;3.50;2.75;;;;;;;;5054435;28;45512;-74
2022/09/21 12:16:37;;;;;;;;;2.50;2.00;;;;;;;;5046790;28;45784;-74
2022/09/21 12:19:05;;;;;;;;;3.00;1.75;;;;;;;;5048134;28;45498;-74
2022/09/21 12:21:34;;;;;;;;;1.50;1.50;;;;;;;;5050411;28;45600;-74
2022/09/21 12:24:04;;;;;;;;;2.00;2.00;;;;;;;;5051658;28;45332;-73
2022/09/21 12:26:37;;;;;;;;;2.25;1.75;;;;;;;;5052076;28;45284;-75
2022/09/21 12:29:24;;;;;;;;;4.25;2.00;;;;;;;;5050854;28;45463;-74
2022/09/21 12:32:09;;;;;;;;;2.00;2.00;;;;;;;;5050302;28;46482;-74
2022/09/21 12:34:48;;;;;;;;;2.00;2.00;;;;;;;;5057073;28;45295;-75
2022/09/21 12:37:13;;;;;;;;;2.00;2.00;;;;;;;;5046928;28;45402;-74
2022/09/21 12:39:48;;;;;;;;;3.50;2.00;;;;;;;;5054489;28;45819;-74
2022/09/21 12:42:25;;;;;;;;;3.00;3.00;;;;;;;;5046635;28;45300;-74
2022/09/21 12:45:11;;;;;;;;;5.00;3.20;;;;;;;;5043948;28;45430;-74
2022/09/21 12:47:45;;;;;;;;;1.25;1.25;;;;;;;;5039178;28;45434;-74
2022/09/21 12:50:19;;;;;;;;;2.75;2.75;;;;;;;;5046488;28;45423;-74
2022/09/21 12:52:45;;;;;;;;;2.75;2.75;;;;;;;;5047117;28;45405;-74
2022/09/21 12:55:14;;;;;;;;;1.00;0.25;;;;;;;;5049720;28;45636;-74
2022/09/21 12:57:43;;;;;;;;;2.00;2.00;;;;;;;;5053980;28;45470;-73
2022/09/21 13:00:14;;;;;;;;;2.00;2.00;;;;;;;;5053511;28;45391;-76
2022/09/21 13:02:47;;;;;;;;;1.00;1.00;;;;;;;;5046836;28;46206;-76
2022/09/21 13:05:17;;;;;;;;;2.00;1.00;;;;;;;;5053189;28;45537;-77
2022/09/21 13:08:03;;;;;;;;;2.75;2.00;;;;;;;;5056175;28;45343;-76
2022/09/21 13:10:30;;;;;;;;;2.75;2.00;;;;;;;;5053531;28;45696;-77
2022/09/21 13:13:00;;;;;;;;;2.00;1.25;;;;;;;;5065055;28;46162;-77
2022/09/21 13:15:28;;;;;;;;;2.00;1.00;;;;;;;;5054586;28;45368;-74
2022/09/21 13:18:01;;;;;;;;;1.00;1.00;;;;;;;;5055476;28;45750;-75
2022/09/21 13:20:31;;;;;;;;;1.00;1.00;;;;;;;;5056940;28;45229;-75
2022/09/21 13:23:00;;;;;;;;;2.75;2.75;;;;;;;;5057883;28;45340;-74
2022/09/21 13:25:29;;;;;;;;;2.25;2.25;;;;;;;;5045451;28;45218;-75
2022/09/21 13:28:00;;;;;;;;;1.50;1.50;;;;;;;;5054378;28;45442;-74
2022/09/21 13:30:37;;;;;;;;;1.00;1.00;;;;;;;;5046648;28;45415;-74
2022/09/21 13:33:04;;;;;;;;;1.50;1.50;;;;;;;;5056337;28;45963;-74
2022/09/21 13:35:50;;;;;;;;;1.00;1.00;;;;;;;;5053163;28;45802;-75
2022/09/21 13:38:26;;;;;;;;;2.50;1.00;;;;;;;;5047831;28;45553;-74
2022/09/21 13:40:56;;;;;;;;;2.00;2.00;;;;;;;;5050977;28;45329;-75
2022/09/21 13:43:23;;;;;;;;;5.00;3.00;;;;;;;;5057903;28;46473;-75
2022/09/21 13:45:50;;;;;;;;;2.50;2.50;;;;;;;;5055162;28;45619;-75
2022/09/21 13:48:19;;;;;;;;;1.50;1.50;;;;;;;;5060209;28;45482;-75
2022/09/21 13:50:45;;;;;;;;;1.00;1.00;;;;;;;;5055328;28;45415;-75
2022/09/21 13:53:24;;;;;;;;;4.50;1.00;;;;;;;;5061319;28;45243;-75
2022/09/21 13:55:54;;;;;;;;;3.00;2.00;;;;;;;;5055098;28;45339;-75
2022/09/21 13:58:28;;;;;;;;;3.50;2.00;;;;;;;;5048240;28;45366;-75
2022/09/21 14:00:59;;;;;;;;;3.00;1.50;;;;;;;;5057429;28;45478;-75
2022/09/21 14:03:37;;;;;;;;;2.00;1.25;;;;;;;;5055793;28;45496;-75
2022/09/21 14:06:07;;;;;;;;;3.00;1.25;;;;;;;;5046886;28;45415;-73
2022/09/21 14:08:37;;;;;;;;;2.25;2.25;;;;;;;;5062808;28;45735;-73
2022/09/21 14:11:09;;;;;;;;;1.25;1.25;;;;;;;;5046620;28;45483;-71
2022/09/21 14:13:40;;;;;;;;;2.00;2.00;;;;;;;;5054102;28;46138;-71
2022/09/21 14:16:25;;;;;;;;;1.00;1.00;;;;;;;;5047218;28;45407;-71
2022/09/21 14:18:50;;;;;;;;;2.00;1.25;;;;;;;;5052746;28;45245;-70
2022/09/21 14:21:17;;;;;;;;;1.75;1.00;;;;;;;;5050079;28;45598;-70
2022/09/21 14:24:00;;;;;;;;;2.00;2.00;;;;;;;;5057934;28;47494;-71
2022/09/21 14:26:33;;;;;;;;;2.00;1.00;;;;;;;;5052164;28;45428;-71
2022/09/21 14:29:05;;;;;;;;;1.00;1.00;;;;;;;;5059973;28;45380;-70
2022/09/21 14:31:33;;;;;;;;;2.25;1.50;;;;;;;;5057614;28;45457;-70
2022/09/21 14:34:00;;;;;;;;;3.00;1.75;;;;;;;;5058185;28;45425;-71
2022/09/21 14:36:33;;;;;;;;;3.00;1.75;;;;;;;;5054531;28;45306;-71
2022/09/21 14:39:00;;;;;;;;;3.50;2.00;;;;;;;;5056873;28;45393;-70
2022/09/21 14:41:30;;;;;;;;;3.00;2.00;;;;;;;;5054963;28;45554;-71